WetterOnline ( https://www.wetteronline.de )

Wetter aktuell Plön

Aktuelles Wetter: Dörnick (28m)

6-stündlich | Neueste Meldungen
Ortszeit Temperatur Wetter
Do, 05.12. 13:00 5.2° C wolkenlos
Do, 05.12. 7:00 1.6° C bedeckt
Do, 05.12. 1:00 3.3° C wolkenlos
Mi, 04.12. 19:00 5.4° C bedeckt
Mi, 04.12. 13:00 5.6° C bedeckt
Mi, 04.12. 7:00 5.0° C bewölkt
Mi, 04.12. 1:00 6.3° C bedeckt
Di, 03.12. 19:00 6.2° C bedeckt
Ortszeit Temperatur Wetter
Do, 05.12. 16:00 4.5° C bewölkt
Do, 05.12. 15:50 4.5° C bewölkt
Do, 05.12. 15:40 4.4° C bewölkt
Do, 05.12. 15:30 4.5° C wolkig
Do, 05.12. 15:20 4.5° C wolkig
Do, 05.12. 15:10 4.4° C wolkig
Do, 05.12. 15:00 4.7° C wolkig
Do, 05.12. 14:30 5.3° C wolkig
Do, 05.12. 14:00 5.5° C leicht bewölkt
Do, 05.12. 13:30 5.4° C wolkenlos
Do, 05.12. 13:00 5.2° C wolkenlos
Ortszeit Relative Feuchte Sichtweite
Do, 05.12. 13:00 80% 13 km
Do, 05.12. 7:00 95% 4.9 km
Do, 05.12. 1:00 92% 7 km
Mi, 04.12. 19:00 91% 6 km
Mi, 04.12. 13:00 85% 7 km
Mi, 04.12. 7:00 95% 3.1 km
Mi, 04.12. 1:00 95% 2.1 km
Di, 03.12. 19:00 95% 4.4 km
Ortszeit Relative Feuchte Sichtweite
Do, 05.12. 16:00 87% 12 km
Do, 05.12. 15:50 87% -
Do, 05.12. 15:40 87% -
Do, 05.12. 15:30 86% 12 km
Do, 05.12. 15:20 86% -
Do, 05.12. 15:10 86% -
Do, 05.12. 15:00 84% 13 km
Do, 05.12. 14:30 83% 15 km
Do, 05.12. 14:00 82% 16 km
Do, 05.12. 13:30 80% 14 km
Do, 05.12. 13:00 80% 13 km
Ortszeit Niederschlagsmenge Niederschlagsart
Do, 05.12. 13:00 0.0 l/m2 in 6 Std. -
Do, 05.12. 7:00 0.0 l/m2 in 12 Std. -
Do, 05.12. 1:00 0.0 l/m2 in 6 Std. -
Mi, 04.12. 19:00 0.0 l/m2 in 12 Std. -
Mi, 04.12. 13:00 0.0 l/m2 in 6 Std. -
Mi, 04.12. 7:00 0.2 l/m2 in 12 Std. Sprühregen
Mi, 04.12. 1:00 0.1 l/m2 in 6 Std. Sprühregen
Di, 03.12. 19:00 0.2 l/m2 in 12 Std. Regen
Ortszeit Niederschlagsmenge Niederschlagsart
Do, 05.12. 16:00 0.0 l/m2 in 1 Std. -
Do, 05.12. 15:50 keine Meldung -
Do, 05.12. 15:40 keine Meldung -
Do, 05.12. 15:30 0.0 l/m2 in 1 Std. -
Do, 05.12. 15:20 keine Meldung -
Do, 05.12. 15:10 keine Meldung -
Do, 05.12. 15:00 0.0 l/m2 in 1 Std. -
Do, 05.12. 14:30 0.0 l/m2 in 1 Std. -
Do, 05.12. 14:00 0.0 l/m2 in 1 Std. -
Do, 05.12. 13:30 0.0 l/m2 in 1 Std. -
Do, 05.12. 13:00 0.0 l/m2 in 1 Std. -
Ortszeit Stärke Spitze Richtung
km/h Bft. km/h Grad Sektor
Do, 05.12. 13:00 18 3 29 210° SW
Do, 05.12. 7:00 13 3 22 220° SW
Do, 05.12. 1:00 11 2 25 230° SW
Mi, 04.12. 19:00 9 2 30 250° W
Mi, 04.12. 13:00 20 4 28 230° SW
Mi, 04.12. 7:00 15 3 28 220° SW
Mi, 04.12. 1:00 22 4 36 230° SW
Di, 03.12. 19:00 22 4 32 240° SW
Ortszeit Stärke Spitze Richtung
km/h Bft. km/h Grad Sektor
Do, 05.12. 16:00 18 3 29 220° SW
Do, 05.12. 15:50 18 3 - 220° SW
Do, 05.12. 15:40 18 3 - 210° SW
Do, 05.12. 15:30 17 3 24 220° SW
Do, 05.12. 15:20 17 3 - 220° SW
Do, 05.12. 15:10 14 3 - 220° SW
Do, 05.12. 15:00 17 3 28 220° SW
Do, 05.12. 14:30 18 3 29 220° SW
Do, 05.12. 14:00 17 3 28 220° SW
Do, 05.12. 13:30 17 3 28 220° SW
Do, 05.12. 13:00 18 3 29 210° SW
Ortszeit Untergrenze Bedeckung Gattung
total tief tief mittel hoch
Do, 05.12. 13:00 - 0/8 0/8 - - -
Do, 05.12. 7:00 660 m 8/8 8/8 - - -
Do, 05.12. 1:00 - 0/8 0/8 - - -
Mi, 04.12. 19:00 330 m 8/8 8/8 - - -
Mi, 04.12. 13:00 480 m 8/8 8/8 - - -
Mi, 04.12. 7:00 180 m 7/8 7/8 - - -
Mi, 04.12. 1:00 210 m 8/8 8/8 - - -
Di, 03.12. 19:00 270 m 8/8 8/8 - - -
Ortszeit Bedeckungsgrad in Achtel und Wolkenuntergrenze
Do, 05.12. 16:00 7(330m) 7(8700m)
Do, 05.12. 15:50 7(330m) 7(8700m)
Do, 05.12. 15:40 7(360m) 7(6900m) 7(8700m)
Do, 05.12. 15:30 4(390m) 7(8100m) 7(9000m)
Do, 05.12. 15:20 4(390m) 7(8100m) 7(9000m)
Do, 05.12. 15:10 2(390m) 8(8400m) 8(9000m)
Do, 05.12. 15:00 7(8400m) 8(9000m)
Do, 05.12. 14:30 7(9000m) 7(9000m)
Do, 05.12. 14:00 6(9000m) 6(10500m)
Do, 05.12. 13:30 keine Wolken
Do, 05.12. 13:00 keine Wolken
Ortszeit Luftdruck NN (hPa) Tendenz (hPa in 3 Std.)
Do, 05.12. 13:00 1016 - 1,0
Do, 05.12. 7:00 1018 - 0,6
Do, 05.12. 1:00 1019 - 0,9
Mi, 04.12. 19:00 1020 - 0,2
Mi, 04.12. 13:00 1021 - 0,3
Mi, 04.12. 7:00 1021 - 0,1
Mi, 04.12. 1:00 1021 - 0,2
Di, 03.12. 19:00 1022 - 1,3
Ortszeit Luftdruck NN (hPa) Tendenz (hPa in 3 Std.)
Do, 05.12. 16:00 1015 - 1,5
Do, 05.12. 15:50 1015 keine Meldung
Do, 05.12. 15:40 1015 keine Meldung
Do, 05.12. 15:30 1015 - 1,6
Do, 05.12. 15:20 1015 keine Meldung
Do, 05.12. 15:10 1015 keine Meldung
Do, 05.12. 15:00 1015 - 1,7
Do, 05.12. 14:30 1016 - 1,6
Do, 05.12. 14:00 1016 - 1,6
Do, 05.12. 13:30 1016 - 1,0
Do, 05.12. 13:00 1016 - 1,0
Ortszeit Schneehöhe (cm)
Do, 05.12. 13:00 0
Do, 05.12. 7:00 0
Do, 05.12. 1:00 0
Mi, 04.12. 19:00 0
Mi, 04.12. 13:00 0
Mi, 04.12. 7:00 0
Mi, 04.12. 1:00 0
Di, 03.12. 19:00 0
Ortszeit Schneehöhe (cm)
Do, 05.12. 16:00 0
Do, 05.12. 15:50 0
Do, 05.12. 15:40 0
Do, 05.12. 15:30 0
Do, 05.12. 15:20 0
Do, 05.12. 15:10 0
Do, 05.12. 15:00 0
Do, 05.12. 14:30 0
Do, 05.12. 14:00 0
Do, 05.12. 13:30 0
Do, 05.12. 13:00 0
Link zu dieser Seite / Seite empfehlen

Das Wetter in ...